CheckWX is a tool to help pilots better visualize weather data.  It is not intended as a substitute for an official pre-flight weather briefing.

08:14:11 UTC

KIJX METAR
Jacksonville Municipal Airport
Jacksonville, Illinois, USA
Current

19 mins ago

KIJX 220755Z AUTO 01005KT 10SM CLR M02/M04 A3035 RMK AO2 T10201040
Observed
Feb-22 @ 07:55 UTC
Wind
  • 010° at 5 KTS
Visibility
10 SM
Flight Rules
VFR
Cloud Levels
  • Clear skies
Temperature
-2°C / 28°F
Dewpoint
-4°C / 25°F
Humidity
86%
Altimeter
30.35" Hg
Pressure
1027.82 hPa
Previous

39 mins ago

KIJX 220735Z AUTO 01005KT 10SM CLR M02/M04 A3034 RMK AO2 T10171037
Observed
Feb-22 @ 07:35 UTC
Wind
  • 010° at 5 KTS
Visibility
10 SM
Flight Rules
VFR
Cloud Levels
  • Clear skies
Temperature
-2°C / 28°F
Dewpoint
-4°C / 25°F
Humidity
86%
Altimeter
30.34" Hg
Pressure
1027.42 hPa
Previous

59 mins ago

KIJX 220715Z AUTO 01005KT 10SM CLR M02/M04 A3033 RMK AO2 T10191036
Observed
Feb-22 @ 07:15 UTC
Wind
  • 010° at 5 KTS
Visibility
10 SM
Flight Rules
VFR
Cloud Levels
  • Clear skies
Temperature
-2°C / 28°F
Dewpoint
-4°C / 25°F
Humidity
86%
Altimeter
30.33" Hg
Pressure
1027.12 hPa